Time;durP1;ratioP1;P1;durP2;ratioP2;P2;SDS_P1;SDS_P2;PMS_P1;PMS_P2;Temp;Humidity;BMP_temperature;BMP_pressure;BME280_temperature;BME280_humidity;BME280_pressure;Samples;Min_cycle;Max_cycle;Signal;HPM_P1;HPM_P2
2023/01/16 00:01:19;;;;;;;1.40;1.30;;;22.80;47.00;;;;;;6105558;28;81276;-53
2023/01/16 00:04:20;;;;;;;2.22;1.63;;;22.80;47.00;;;;;;6105354;28;80114;-49
2023/01/16 00:07:20;;;;;;;2.17;1.30;;;22.80;47.00;;;;;;6093013;28;80343;-51
2023/01/16 00:10:21;;;;;;;1.60;1.40;;;22.80;47.10;;;;;;6103920;28;81199;-50
2023/01/16 00:13:21;;;;;;;1.95;1.40;;;22.80;46.60;;;;;;6101869;28;80731;-51
2023/01/16 00:16:22;;;;;;;2.28;1.27;;;22.80;46.90;;;;;;6097347;28;80795;-51
2023/01/16 00:19:22;;;;;;;1.55;1.40;;;22.80;46.90;;;;;;6100323;28;80970;-47
2023/01/16 00:22:23;;;;;;;2.15;1.30;;;22.80;46.90;;;;;;6104239;28;80780;-51
2023/01/16 00:25:23;;;;;;;1.90;1.40;;;22.80;47.10;;;;;;6105458;28;81514;-48
2023/01/16 00:28:24;;;;;;;2.03;1.30;;;22.80;47.00;;;;;;6100074;28;81163;-49
2023/01/16 00:31:27;;;;;;;2.03;1.40;;;22.80;47.00;;;;;;6086591;28;84681;-56
2023/01/16 00:34:28;;;;;;;1.80;1.50;;;22.80;47.00;;;;;;6099603;28;80796;-50
2023/01/16 00:37:28;;;;;;;2.05;1.35;;;22.80;47.00;;;;;;6104720;28;80918;-51
2023/01/16 00:40:29;;;;;;;1.58;1.17;;;22.80;46.70;;;;;;6103492;28;81079;-51
2023/01/16 00:43:29;;;;;;;1.85;1.10;;;22.80;47.00;;;;;;6095200;28;83621;-50
2023/01/16 00:46:30;;;;;;;1.30;1.10;;;22.80;47.00;;;;;;6097831;28;80160;-49
2023/01/16 00:49:30;;;;;;;1.73;1.20;;;22.80;46.70;;;;;;6102477;28;80203;-48
2023/01/16 00:52:31;;;;;;;2.33;1.33;;;22.80;46.70;;;;;;6101703;28;80148;-62
2023/01/16 00:55:31;;;;;;;1.40;1.10;;;22.80;46.90;;;;;;6102244;28;80355;-62
2023/01/16 00:58:32;;;;;;;1.75;1.30;;;22.80;47.50;;;;;;6115188;28;80206;-62
2023/01/16 01:01:32;;;;;;;1.42;1.02;;;22.80;46.80;;;;;;6112587;28;80570;-62
2023/01/16 01:04:33;;;;;;;1.35;1.02;;;22.80;46.80;;;;;;6099325;28;80187;-62
2023/01/16 01:07:33;;;;;;;2.40;1.48;;;22.80;46.90;;;;;;6107896;28;80387;-63
2023/01/16 01:10:34;;;;;;;1.83;1.48;;;22.80;46.80;;;;;;6100896;28;81253;-61
2023/01/16 01:13:34;;;;;;;1.50;1.15;;;22.80;46.90;;;;;;6101809;28;80073;-59
2023/01/16 01:16:35;;;;;;;1.17;0.95;;;22.80;46.70;;;;;;6100475;28;82030;-59
2023/01/16 01:19:36;;;;;;;1.23;0.98;;;22.80;46.60;;;;;;6113750;28;80432;-61
2023/01/16 01:22:36;;;;;;;1.27;1.17;;;22.80;46.60;;;;;;6102353;28;80573;-61
2023/01/16 01:25:37;;;;;;;1.10;1.00;;;22.80;47.30;;;;;;6100511;28;80401;-61
2023/01/16 01:28:37;;;;;;;1.77;1.17;;;22.80;46.90;;;;;;6111180;28;80257;-61
2023/01/16 01:31:38;;;;;;;1.27;0.98;;;22.80;46.60;;;;;;6097412;28;80115;-61
2023/01/16 01:34:38;;;;;;;1.10;1.00;;;22.80;46.90;;;;;;6110696;28;80409;-61
2023/01/16 01:37:39;;;;;;;1.20;1.10;;;22.80;46.70;;;;;;6100490;28;80859;-61
2023/01/16 01:40:39;;;;;;;1.63;1.27;;;22.80;46.90;;;;;;6105173;28;80298;-62
2023/01/16 01:43:40;;;;;;;1.38;0.98;;;22.80;46.80;;;;;;6104728;28;80753;-60
2023/01/16 01:46:41;;;;;;;1.67;1.20;;;22.70;46.70;;;;;;6108293;28;80321;-62
2023/01/16 01:49:41;;;;;;;1.30;0.82;;;22.70;46.70;;;;;;6108134;28;80283;-62
2023/01/16 01:52:42;;;;;;;0.80;0.80;;;22.70;46.60;;;;;;6108316;28;81185;-62
2023/01/16 01:55:42;;;;;;;1.40;1.10;;;22.70;46.60;;;;;;6107587;28;80979;-63
2023/01/16 01:58:43;;;;;;;1.77;1.20;;;22.70;46.60;;;;;;6108123;28;80405;-63
2023/01/16 02:01:49;;;;;;;1.08;0.90;;;22.70;46.60;;;;;;6107645;28;80848;-62
2023/01/16 02:04:51;;;;;;;1.63;1.00;;;22.70;46.60;;;;;;6108459;28;80283;-61
2023/01/16 02:07:52;;;;;;;0.85;0.73;;;22.80;46.50;;;;;;6106730;28;80340;-60
2023/01/16 02:10:52;;;;;;;1.20;1.08;;;22.70;46.40;;;;;;6115994;28;80427;-60
2023/01/16 02:13:53;;;;;;;1.63;1.10;;;22.70;46.70;;;;;;6102448;28;81717;-59
2023/01/16 02:20:12;;;;;;;1.52;1.13;;;22.70;46.70;;;;;;6092396;28;85053;-59
2023/01/16 02:23:13;;;;;;;1.80;1.20;;;22.70;46.40;;;;;;6087315;28;80931;-60
2023/01/16 02:26:14;;;;;;;1.75;1.17;;;22.70;46.40;;;;;;6105955;28;80943;-60
2023/01/16 02:29:14;;;;;;;2.10;1.17;;;22.70;46.30;;;;;;6107474;28;80812;-59
2023/01/16 02:32:15;;;;;;;1.10;1.00;;;22.70;46.40;;;;;;6116329;28;80246;-59
2023/01/16 02:35:15;;;;;;;1.80;1.00;;;22.70;47.20;;;;;;6116763;28;80565;-59
2023/01/16 02:38:16;;;;;;;1.20;1.02;;;22.70;46.90;;;;;;6106634;28;81044;-59
2023/01/16 02:41:16;;;;;;;1.30;1.10;;;22.70;47.00;;;;;;6086462;28;80480;-58
2023/01/16 02:44:17;;;;;;;1.38;1.02;;;22.70;47.00;;;;;;6106532;28;80748;-60
2023/01/16 02:47:17;;;;;;;1.30;1.20;;;22.70;46.70;;;;;;6098138;28;80777;-60
2023/01/16 02:50:18;;;;;;;1.63;1.13;;;22.70;46.60;;;;;;6106168;28;80286;-60
2023/01/16 02:53:18;;;;;;;1.25;0.95;;;22.70;46.50;;;;;;6094034;28;80290;-60
2023/01/16 02:56:19;;;;;;;1.75;1.20;;;22.70;46.80;;;;;;6084745;28;81790;-60
2023/01/16 02:59:19;;;;;;;2.30;1.40;;;22.70;46.60;;;;;;6105757;28;80428;-60
2023/01/16 03:02:20;;;;;;;1.73;1.23;;;22.70;46.50;;;;;;6104720;28;81426;-60
2023/01/16 03:05:21;;;;;;;1.40;1.30;;;22.70;46.60;;;;;;6105208;28;80772;-62
2023/01/16 03:08:21;;;;;;;2.00;1.20;;;22.70;46.60;;;;;;6107585;28;80529;-61
2023/01/16 03:11:24;;;;;;;2.20;1.27;;;22.70;46.70;;;;;;6092442;28;83712;-60
2023/01/16 03:14:25;;;;;;;1.60;1.08;;;22.60;47.20;;;;;;6087371;28;80281;-60
2023/01/16 03:17:25;;;;;;;1.52;1.33;;;22.70;46.30;;;;;;6105418;28;81323;-59
2023/01/16 03:20:26;;;;;;;1.50;1.10;;;22.70;46.40;;;;;;6106489;28;81418;-60
2023/01/16 03:23:26;;;;;;;1.38;1.10;;;22.70;46.50;;;;;;6103973;28;81161;-59
2023/01/16 03:26:27;;;;;;;1.45;1.20;;;22.70;46.70;;;;;;6105793;28;80885;-59
2023/01/16 03:29:29;;;;;;;1.75;1.20;;;22.60;46.80;;;;;;6112777;28;80801;-59
2023/01/16 03:32:30;;;;;;;2.30;1.40;;;22.70;46.90;;;;;;6104967;28;81967;-60
2023/01/16 03:35:30;;;;;;;1.55;1.42;;;22.70;46.90;;;;;;6104373;28;80554;-60
2023/01/16 03:38:31;;;;;;;3.55;1.35;;;22.60;46.90;;;;;;6105303;28;80879;-60
2023/01/16 03:41:31;;;;;;;2.28;1.60;;;22.60;46.80;;;;;;6115198;28;81108;-60
2023/01/16 03:44:32;;;;;;;1.58;1.10;;;22.60;47.00;;;;;;6101328;28;80778;-60
2023/01/16 03:47:32;;;;;;;2.03;1.25;;;22.60;47.10;;;;;;6105853;28;81458;-60
2023/01/16 03:50:33;;;;;;;1.88;1.10;;;22.60;47.00;;;;;;6103928;28;81013;-60
2023/01/16 03:53:34;;;;;;;2.08;1.42;;;22.70;47.00;;;;;;6102143;28;80461;-60
2023/01/16 03:56:34;;;;;;;1.33;1.10;;;22.70;47.00;;;;;;6095378;28;80539;-60
2023/01/16 03:59:35;;;;;;;1.42;1.15;;;22.70;46.90;;;;;;6105590;28;80131;-59
2023/01/16 04:02:35;;;;;;;1.40;1.30;;;22.60;47.00;;;;;;6104596;28;81040;-60
2023/01/16 04:05:36;;;;;;;2.80;1.33;;;22.60;46.80;;;;;;6111577;28;80514;-61
2023/01/16 04:08:36;;;;;;;1.30;1.20;;;22.60;46.80;;;;;;6109968;28;81341;-62
2023/01/16 04:11:37;;;;;;;1.48;1.20;;;22.60;46.40;;;;;;6112215;28;80356;-61
2023/01/16 04:14:37;;;;;;;2.83;1.33;;;22.60;46.40;;;;;;6096565;28;83925;-62
2023/01/16 04:17:38;;;;;;;2.08;1.60;;;22.60;46.50;;;;;;6105365;28;80010;-63
2023/01/16 04:20:38;;;;;;;2.28;1.55;;;22.60;46.60;;;;;;6105799;28;80568;-62
2023/01/16 04:23:39;;;;;;;1.60;1.08;;;22.60;46.60;;;;;;6105136;28;81193;-60
2023/01/16 04:26:39;;;;;;;2.75;1.35;;;22.60;46.70;;;;;;6103566;28;80247;-60
2023/01/16 04:29:40;;;;;;;1.85;1.38;;;22.60;46.50;;;;;;6103809;28;80530;-61
2023/01/16 04:32:40;;;;;;;2.85;1.40;;;22.60;46.30;;;;;;6109193;28;80221;-58
2023/01/16 04:35:41;;;;;;;2.35;1.30;;;22.60;46.30;;;;;;6102705;28;81628;-58
2023/01/16 04:38:41;;;;;;;2.35;1.55;;;22.60;46.40;;;;;;6104835;28;80505;-59
2023/01/16 04:41:42;;;;;;;2.97;1.42;;;22.60;46.00;;;;;;6088108;28;80158;-57
2023/01/16 04:44:42;;;;;;;4.63;1.40;;;22.60;46.40;;;;;;6104414;28;80823;-58
2023/01/16 04:47:43;;;;;;;1.55;1.30;;;22.60;46.10;;;;;;6104095;28;81819;-57
2023/01/16 04:50:43;;;;;;;2.28;1.40;;;22.60;46.30;;;;;;6093686;28;81485;-57
2023/01/16 04:53:44;;;;;;;3.22;1.20;;;22.60;46.20;;;;;;6100482;28;81612;-58
2023/01/16 04:56:44;;;;;;;1.55;1.05;;;22.60;46.00;;;;;;6085678;28;80794;-59
2023/01/16 04:59:45;;;;;;;1.63;1.15;;;22.60;46.40;;;;;;6103435;28;80893;-59
2023/01/16 05:02:46;;;;;;;2.08;1.50;;;22.50;45.90;;;;;;6086352;28;80468;-57
2023/01/16 05:05:46;;;;;;;1.67;1.45;;;22.50;45.90;;;;;;6104335;28;80532;-59
2023/01/16 05:08:47;;;;;;;2.13;1.27;;;22.50;45.90;;;;;;6104374;28;81452;-59
2023/01/16 05:11:47;;;;;;;1.95;1.30;;;22.50;45.60;;;;;;6104193;28;87192;-57
2023/01/16 05:14:48;;;;;;;1.23;1.10;;;22.50;46.10;;;;;;6106180;28;81469;-59
2023/01/16 05:17:48;;;;;;;1.67;1.17;;;22.50;46.30;;;;;;6108307;28;81678;-56
2023/01/16 05:20:49;;;;;;;2.53;1.52;;;22.50;46.00;;;;;;6116497;28;80613;-55
2023/01/16 05:23:49;;;;;;;3.72;1.23;;;22.50;46.50;;;;;;6108474;28;83454;-59
2023/01/16 05:26:50;;;;;;;1.52;1.30;;;22.60;46.20;;;;;;6117600;28;83385;-56
2023/01/16 05:29:50;;;;;;;2.67;1.63;;;22.60;47.00;;;;;;6119845;28;80414;-58
2023/01/16 05:32:51;;;;;;;1.92;1.40;;;22.60;47.40;;;;;;6090855;28;83460;-57
2023/01/16 05:35:53;;;;;;;2.13;1.60;;;22.50;46.80;;;;;;6098328;28;80101;-57
2023/01/16 05:38:54;;;;;;;2.25;1.73;;;22.50;46.80;;;;;;6106893;28;81705;-58
2023/01/16 05:41:54;;;;;;;1.70;1.50;;;22.50;46.60;;;;;;6093048;28;81126;-56
2023/01/16 05:44:55;;;;;;;1.83;1.42;;;22.60;46.80;;;;;;6100518;28;81688;-57
2023/01/16 05:47:55;;;;;;;2.28;1.40;;;22.60;47.10;;;;;;6095266;28;80491;-56
2023/01/16 05:50:56;;;;;;;2.83;1.58;;;22.60;46.90;;;;;;6095142;28;83434;-59
2023/01/16 05:53:56;;;;;;;3.00;2.13;;;22.60;46.80;;;;;;6082018;28;80680;-56
2023/01/16 05:56:57;;;;;;;4.53;1.85;;;22.60;47.00;;;;;;6095479;28;80440;-55
2023/01/16 05:59:58;;;;;;;3.42;1.70;;;22.60;47.10;;;;;;6098939;28;80960;-52
2023/01/16 06:02:58;;;;;;;4.13;1.73;;;22.60;48.20;;;;;;6085737;28;81876;-59
2023/01/16 06:06:00;;;;;;;2.58;1.90;;;22.60;48.10;;;;;;6096236;28;80887;-59
2023/01/16 06:09:01;;;;;;;5.70;2.15;;;22.70;48.60;;;;;;6091277;28;81756;-58
2023/01/16 06:12:01;;;;;;;6.00;2.00;;;22.60;48.70;;;;;;6093489;28;80808;-59
2023/01/16 06:15:02;;;;;;;4.47;2.28;;;22.70;48.00;;;;;;6094164;28;81030;-58
2023/01/16 06:18:02;;;;;;;8.75;2.17;;;22.70;48.50;;;;;;6098331;28;88626;-57
2023/01/16 06:21:03;;;;;;;8.68;2.70;;;22.70;48.20;;;;;;6103514;28;80547;-58
2023/01/16 06:24:03;;;;;;;5.03;2.25;;;22.60;48.40;;;;;;6096676;28;81032;-57
2023/01/16 06:27:04;;;;;;;5.78;2.35;;;22.60;48.40;;;;;;6096299;28;82453;-57
2023/01/16 06:30:04;;;;;;;3.97;2.30;;;22.60;48.10;;;;;;6096033;28;80469;-58
2023/01/16 06:33:05;;;;;;;8.02;2.60;;;22.60;48.20;;;;;;6100889;28;83670;-59
2023/01/16 06:36:05;;;;;;;6.32;2.20;;;22.60;48.10;;;;;;6088277;28;84958;-58
2023/01/16 06:39:06;;;;;;;4.93;2.30;;;22.60;48.10;;;;;;6096869;28;81183;-56
2023/01/16 06:42:06;;;;;;;6.43;2.30;;;22.60;48.10;;;;;;6097334;28;80722;-58
2023/01/16 06:45:07;;;;;;;6.32;2.10;;;22.60;48.00;;;;;;6092955;28;86254;-60
2023/01/16 06:48:08;;;;;;;4.07;2.35;;;22.60;48.20;;;;;;6098641;28;80489;-60
2023/01/16 06:51:09;;;;;;;6.65;2.55;;;22.60;47.90;;;;;;6095926;28;81267;-59
2023/01/16 06:54:10;;;;;;;5.95;2.50;;;22.60;47.80;;;;;;6075863;28;82450;-61
2023/01/16 06:57:10;;;;;;;5.18;2.63;;;22.60;48.00;;;;;;6098370;28;85020;-58
2023/01/16 07:00:11;;;;;;;6.10;2.80;;;22.60;48.00;;;;;;6089040;28;80758;-61
2023/01/16 07:03:12;;;;;;;6.88;3.05;;;22.60;47.50;;;;;;6096548;28;82179;-57
2023/01/16 07:06:13;;;;;;;6.13;3.20;;;22.60;47.90;;;;;;6098089;28;82402;-58
2023/01/16 07:09:13;;;;;;;5.53;3.10;;;22.60;48.20;;;;;;6099728;28;82521;-56
2023/01/16 07:12:14;;;;;;;6.93;2.70;;;22.60;48.40;;;;;;6096994;28;83671;-57
2023/01/16 07:25:29;;;;;;;6.97;3.30;;;22.60;47.50;;;;;;6066620;28;80751;-54
2023/01/16 07:28:30;;;;;;;6.53;3.55;;;22.60;47.30;;;;;;6056385;28;82472;-57
2023/01/16 07:31:30;;;;;;;4.30;3.40;;;22.60;47.50;;;;;;6084634;28;81977;-55
2023/01/16 07:34:31;;;;;;;4.93;3.33;;;22.60;47.50;;;;;;6086640;28;83154;-58
2023/01/16 07:37:31;;;;;;;4.75;3.00;;;22.60;47.40;;;;;;6068783;28;80591;-58
2023/01/16 07:40:32;;;;;;;7.47;3.83;;;22.50;47.20;;;;;;6083963;28;80340;-56
2023/01/16 07:43:32;;;;;;;6.90;3.13;;;22.50;47.20;;;;;;6080640;28;87908;-56
2023/01/16 07:46:33;;;;;;;10.30;3.97;;;22.50;47.20;;;;;;6086748;28;81335;-56
2023/01/16 07:49:33;;;;;;;7.25;3.45;;;22.50;47.20;;;;;;6083439;28;83249;-56
2023/01/16 07:52:34;;;;;;;7.25;3.88;;;22.50;47.20;;;;;;6096266;28;80708;-56
2023/01/16 07:55:34;;;;;;;6.60;4.15;;;22.60;47.20;;;;;;6093464;28;81214;-57
2023/01/16 07:58:35;;;;;;;6.70;3.45;;;22.50;47.30;;;;;;6088211;28;80881;-57
2023/01/16 08:01:36;;;;;;;9.23;3.53;;;22.50;47.70;;;;;;6094882;28;80558;-59
2023/01/16 08:04:36;;;;;;;9.25;3.90;;;22.50;47.70;;;;;;6097125;28;80673;-57
2023/01/16 08:07:37;;;;;;;6.60;3.85;;;22.50;47.50;;;;;;6086406;28;80232;-58
2023/01/16 08:10:37;;;;;;;5.05;3.60;;;22.50;47.40;;;;;;6095686;28;82596;-58
2023/01/16 08:13:40;;;;;;;6.90;4.00;;;22.50;47.90;;;;;;6095896;28;81667;-58
2023/01/16 08:16:40;;;;;;;8.30;4.32;;;22.50;48.20;;;;;;6095607;28;80281;-59
2023/01/16 08:19:41;;;;;;;5.97;3.42;;;22.50;48.30;;;;;;6097954;28;83729;-58
2023/01/16 08:22:42;;;;;;;10.13;4.53;;;22.50;48.30;;;;;;6101230;28;84444;-66
2023/01/16 08:25:42;;;;;;;9.35;3.90;;;22.50;48.00;;;;;;6097417;28;86999;-57
2023/01/16 08:28:43;;;;;;;9.73;4.88;;;22.50;48.20;;;;;;6095885;28;83056;-58
2023/01/16 08:31:43;;;;;;;14.65;5.10;;;22.50;47.90;;;;;;6085366;28;80399;-48
2023/01/16 08:34:44;;;;;;;80.53;46.30;;;22.50;47.90;;;;;;6093132;28;80875;-53
2023/01/16 08:37:44;;;;;;;111.35;63.88;;;22.60;48.50;;;;;;6095552;28;86030;-53
2023/01/16 08:40:45;;;;;;;124.13;70.82;;;22.60;48.40;;;;;;6089576;28;83098;-52
2023/01/16 08:53:43;;;;;;;88.53;48.60;;;22.60;48.50;;;;;;6085028;28;83982;-48
2023/01/16 08:56:44;;;;;;;79.03;42.78;;;22.70;48.50;;;;;;6089258;28;83364;-47
2023/01/16 08:59:46;;;;;;;67.03;38.40;;;22.60;48.30;;;;;;6093183;28;87905;-50
2023/01/16 09:02:46;;;;;;;64.32;34.83;;;22.60;48.10;;;;;;6089395;28;83364;-50
2023/01/16 09:05:47;;;;;;;60.28;34.47;;;22.60;47.90;;;;;;6085953;28;82920;-49
2023/01/16 09:08:47;;;;;;;59.22;33.50;;;22.60;48.00;;;;;;6091003;28;87980;-49
2023/01/16 09:15:07;;;;;;;43.30;24.67;;;22.60;47.80;;;;;;6082493;28;83095;-52
2023/01/16 09:18:07;;;;;;;44.45;23.88;;;22.70;48.00;;;;;;6079237;28;89512;-53
2023/01/16 09:21:08;;;;;;;44.22;20.95;;;22.70;48.00;;;;;;6095853;28;83466;-51
2023/01/16 09:24:08;;;;;;;31.50;19.33;;;22.70;47.90;;;;;;6092833;28;84192;-53
2023/01/16 09:27:09;;;;;;;28.83;17.88;;;22.70;48.00;;;;;;6096524;28;82944;-61
2023/01/16 09:30:09;;;;;;;29.98;18.27;;;22.70;48.00;;;;;;6083657;28;83472;-61
2023/01/16 09:33:10;;;;;;;91.38;47.20;;;22.70;47.70;;;;;;6084253;28;84596;-60
2023/01/16 09:36:10;;;;;;;165.50;91.53;;;22.70;47.40;;;;;;6089770;28;83741;-60
2023/01/16 09:39:11;;;;;;;158.65;89.53;;;22.80;48.10;;;;;;6085846;28;83455;-63
2023/01/16 09:45:31;;;;;;;92.22;53.17;;;22.70;47.60;;;;;;6090007;28;84101;-59
2023/01/16 09:48:31;;;;;;;82.50;46.58;;;22.70;47.30;;;;;;6088877;28;83877;-63
2023/01/16 09:51:32;;;;;;;77.25;42.95;;;22.70;47.30;;;;;;6094119;28;84933;-58
2023/01/16 10:01:11;;;;;;;51.40;30.98;;;22.70;48.30;;;;;;6088322;28;82870;-60
2023/01/16 10:04:11;;;;;;;53.28;29.42;;;22.70;48.10;;;;;;6077963;28;83156;-59
2023/01/16 10:07:12;;;;;;;48.65;26.80;;;22.70;47.80;;;;;;6078765;28;82810;-55
2023/01/16 10:10:12;;;;;;;47.53;25.45;;;22.70;47.80;;;;;;6052323;28;86377;-57
2023/01/16 10:13:13;;;;;;;41.88;24.52;;;22.80;47.70;;;;;;6069877;28;87551;-59
2023/01/16 10:16:13;;;;;;;41.55;23.02;;;22.80;48.00;;;;;;6065040;28;93539;-58
2023/01/16 10:19:14;;;;;;;40.42;21.25;;;22.80;48.30;;;;;;6060551;28;83830;-58
2023/01/16 10:22:14;;;;;;;35.90;20.42;;;22.80;47.90;;;;;;6097207;28;84856;-54
2023/01/16 10:25:15;;;;;;;37.40;21.00;;;22.80;47.60;;;;;;6082375;28;83389;-57
2023/01/16 10:28:17;;;;;;;29.92;18.70;;;22.80;47.90;;;;;;6088278;28;87326;-57
2023/01/16 10:31:20;;;;;;;31.65;18.92;;;22.80;48.10;;;;;;6096282;28;83818;-56
2023/01/16 10:34:21;;;;;;;29.23;17.60;;;22.80;47.90;;;;;;6102137;28;83339;-54
2023/01/16 10:37:22;;;;;;;25.60;15.98;;;22.70;47.70;;;;;;6084570;28;87928;-54
2023/01/16 10:40:24;;;;;;;29.85;17.13;;;22.70;47.50;;;;;;6079884;28;85001;-54
2023/01/16 10:50:04;;;;;;;22.50;13.90;;;22.80;47.60;;;;;;6087406;28;83654;-54
2023/01/16 10:53:04;;;;;;;22.30;14.13;;;22.70;47.60;;;;;;6090176;28;82861;-59
2023/01/16 10:56:05;;;;;;;24.63;13.48;;;22.70;47.50;;;;;;6090785;28;83561;-60
2023/01/16 10:59:05;;;;;;;25.77;13.48;;;22.70;47.30;;;;;;6091623;28;83242;-62
2023/01/16 11:02:06;;;;;;;24.05;11.95;;;22.70;47.00;;;;;;6091112;28;83403;-61
2023/01/16 11:05:06;;;;;;;37.13;13.82;;;22.70;47.10;;;;;;6097620;28;83023;-60
2023/01/16 11:08:07;;;;;;;20.33;11.60;;;22.70;47.00;;;;;;6102895;28;84962;-60
2023/01/16 11:18:27;;;;;;;23.42;11.32;;;22.70;47.20;;;;;;6091287;28;85176;-60
2023/01/16 11:21:06;;;;;;;20.25;10.68;;;22.70;46.90;;;;;;6086617;28;86786;-57
2023/01/16 11:24:07;;;;;;;19.05;10.57;;;22.70;47.60;;;;;;6096106;28;83478;-57
2023/01/16 11:27:09;;;;;;;18.92;10.98;;;22.70;48.20;;;;;;6094432;28;83468;-57
2023/01/16 11:30:10;;;;;;;20.67;10.55;;;22.70;49.10;;;;;;6096737;28;90593;-57
2023/01/16 11:33:10;;;;;;;21.98;10.38;;;22.70;50.60;;;;;;6089596;28;83640;-58
2023/01/16 11:36:11;;;;;;;19.52;10.55;;;22.80;51.80;;;;;;6092178;28;88644;-58
2023/01/16 11:39:11;;;;;;;22.35;10.45;;;22.80;53.00;;;;;;6093195;28;84099;-58
2023/01/16 11:48:50;;;;;;;14.35;9.57;;;22.90;52.30;;;;;;6086986;28;80341;-55
2023/01/16 11:51:51;;;;;;;23.33;9.43;;;22.90;52.70;;;;;;6083872;28;83715;-55
2023/01/16 11:54:51;;;;;;;31.10;11.90;;;22.90;53.50;;;;;;6092803;28;82049;-54
2023/01/16 11:57:52;;;;;;;74.22;20.67;;;22.90;53.30;;;;;;6087290;28;90206;-55
2023/01/16 12:00:52;;;;;;;96.50;46.28;;;22.90;54.40;;;;;;6089063;28;83957;-57
2023/01/16 12:03:55;;;;;;;105.05;54.65;;;23.00;54.90;;;;;;6073301;28;86562;-56
2023/01/16 12:06:56;;;;;;;102.38;51.85;;;23.00;55.10;;;;;;6087747;28;83171;-57
2023/01/16 12:09:56;;;;;;;118.97;56.55;;;23.00;54.90;;;;;;6100471;28;83072;-54
2023/01/16 12:16:16;;;;;;;128.13;60.67;;;23.00;55.20;;;;;;6085854;28;83625;-59
2023/01/16 12:19:17;;;;;;;151.68;77.63;;;23.00;54.40;;;;;;6090338;28;85968;-59
2023/01/16 12:22:17;;;;;;;178.93;103.30;;;23.00;55.00;;;;;;6088181;28;90074;-59
2023/01/16 12:25:18;;;;;;;220.00;119.82;;;23.00;54.90;;;;;;6082998;28;85219;-63
2023/01/16 12:28:18;;;;;;;229.13;123.63;;;23.10;55.20;;;;;;6086766;28;86199;-62
2023/01/16 12:31:38;;;;;;;228.98;128.32;;;23.10;55.60;;;;;;6090224;28;86051;-47
2023/01/16 12:34:39;;;;;;;241.50;138.50;;;23.10;55.40;;;;;;6086228;28;85645;-46
2023/01/16 12:37:39;;;;;;;208.80;130.55;;;23.10;55.40;;;;;;6089577;28;86108;-49
2023/01/16 12:40:40;;;;;;;217.60;130.80;;;23.10;55.40;;;;;;6090952;28;87824;-49
2023/01/16 12:43:41;;;;;;;242.63;144.43;;;23.10;55.60;;;;;;6087955;28;85858;-49
2023/01/16 12:46:41;;;;;;;221.73;138.10;;;23.10;56.10;;;;;;6088952;28;90497;-51
2023/01/16 12:49:42;;;;;;;205.30;131.30;;;23.10;56.00;;;;;;6089096;28;86743;-48
2023/01/16 12:52:42;;;;;;;207.98;126.57;;;23.20;55.90;;;;;;6083274;28;85551;-49
2023/01/16 12:55:43;;;;;;;186.38;115.70;;;23.30;55.20;;;;;;6079941;28;88809;-49
2023/01/16 12:58:44;;;;;;;175.55;110.72;;;23.30;55.80;;;;;;6097263;28;87991;-48
2023/01/16 13:01:44;;;;;;;175.23;105.03;;;23.30;55.40;;;;;;6083804;28;85837;-51
2023/01/16 13:04:45;;;;;;;164.25;103.78;;;23.30;54.70;;;;;;6075677;28;86236;-48
2023/01/16 13:07:45;;;;;;;154.18;98.95;;;23.20;55.10;;;;;;6084692;28;88628;-50
2023/01/16 13:14:05;;;;;;;136.95;88.43;;;23.20;55.00;;;;;;6083079;28;83256;-49
2023/01/16 13:17:06;;;;;;;137.32;88.18;;;23.10;54.60;;;;;;6086293;28;83523;-58
2023/01/16 13:20:06;;;;;;;128.98;80.10;;;23.10;54.30;;;;;;6087271;28;88746;-58
2023/01/16 13:23:07;;;;;;;124.80;75.68;;;23.10;54.00;;;;;;6084271;28;83503;-58
2023/01/16 13:26:07;;;;;;;121.13;72.78;;;23.10;55.00;;;;;;6082244;28;83338;-58
2023/01/16 13:29:08;;;;;;;120.90;70.35;;;23.10;56.00;;;;;;6086789;28;90330;-49
2023/01/16 13:32:08;;;;;;;110.95;67.05;;;23.10;56.70;;;;;;6079655;28;83335;-48
2023/01/16 13:35:09;;;;;;;105.68;63.50;;;23.10;56.30;;;;;;6099647;28;83213;-48
2023/01/16 13:38:09;;;;;;;102.65;60.22;;;23.10;56.00;;;;;;6080480;28;87289;-48
2023/01/16 13:41:11;;;;;;;99.80;56.55;;;23.10;56.10;;;;;;6074959;28;83384;-47
2023/01/16 13:47:30;;;;;;;84.95;50.58;;;23.10;55.40;;;;;;6075971;28;83055;-49
2023/01/16 13:50:31;;;;;;;80.50;46.75;;;23.10;54.90;;;;;;6089887;28;86965;-60
2023/01/16 13:53:31;;;;;;;81.38;45.38;;;23.10;55.00;;;;;;6083116;28;84195;-58
2023/01/16 13:56:32;;;;;;;81.38;44.72;;;23.10;54.90;;;;;;6091382;28;83384;-58
2023/01/16 13:59:32;;;;;;;75.80;45.00;;;23.10;54.60;;;;;;6109334;28;89303;-59
2023/01/16 14:02:33;;;;;;;76.60;50.17;;;23.10;54.40;;;;;;6095466;28;83898;-57
2023/01/16 14:05:33;;;;;;;72.63;48.50;;;23.10;54.40;;;;;;6083230;28;84838;-60
2023/01/16 14:11:53;;;;;;;58.13;41.40;;;23.30;54.40;;;;;;6074286;28;83681;-62
2023/01/16 14:18:13;;;;;;;53.97;35.13;;;23.60;53.80;;;;;;6078143;28;84612;-60
2023/01/16 14:21:14;;;;;;;53.28;31.08;;;23.70;52.90;;;;;;6092037;28;84296;-59
2023/01/16 14:24:14;;;;;;;46.72;29.58;;;23.70;52.70;;;;;;6089472;28;83092;-61
2023/01/16 14:27:15;;;;;;;50.50;29.20;;;23.60;52.80;;;;;;6088428;28;85601;-61
2023/01/16 14:30:15;;;;;;;50.33;28.60;;;23.50;53.00;;;;;;6053347;28;87006;-61
2023/01/16 14:33:16;;;;;;;44.28;27.15;;;23.50;53.90;;;;;;6083542;28;85428;-63
2023/01/16 14:36:17;;;;;;;39.45;24.85;;;23.40;54.60;;;;;;6086596;28;85972;-64
2023/01/16 14:39:17;;;;;;;40.65;23.60;;;23.30;55.30;;;;;;6086481;28;83572;-58
2023/01/16 14:55:35;;;;;;;33.50;18.38;;;23.10;56.80;;;;;;6082684;28;82929;-60
2023/01/16 14:58:35;;;;;;;27.45;17.02;;;23.10;56.60;;;;;;6085822;28;83149;-59
2023/01/16 15:04:55;;;;;;;30.48;15.40;;;23.10;56.40;;;;;;6090531;28;82977;-60
2023/01/16 15:07:56;;;;;;;22.75;14.90;;;23.00;56.50;;;;;;6092344;28;83265;-58
2023/01/16 15:10:56;;;;;;;30.42;13.63;;;23.00;56.90;;;;;;6069624;28;86313;-59
2023/01/16 15:23:55;;;;;;;19.77;11.90;;;22.90;56.70;;;;;;6092094;28;84024;-58
2023/01/16 15:26:55;;;;;;;20.20;11.07;;;22.90;56.40;;;;;;6102751;28;86779;-59
2023/01/16 15:29:56;;;;;;;18.35;12.02;;;22.90;56.20;;;;;;6100698;28;83348;-59
2023/01/16 15:33:43;;;;;;;16.85;11.38;;;22.90;56.30;;;;;;6108115;28;86698;-58
2023/01/16 15:36:17;;;;;;;19.08;11.80;;;22.90;56.40;;;;;;6102304;28;82938;-58
2023/01/16 15:39:18;;;;;;;19.90;9.55;;;22.80;56.90;;;;;;6101782;28;84402;-59
2023/01/16 15:48:57;;;;;;;17.77;9.40;;;22.90;57.40;;;;;;6095622;28;80764;-58
2023/01/16 15:51:58;;;;;;;18.35;9.20;;;22.90;57.20;;;;;;6093383;28;80589;-59
2023/01/16 15:54:58;;;;;;;14.82;9.63;;;22.90;56.80;;;;;;6074463;28;80457;-60
2023/01/16 15:57:59;;;;;;;17.60;10.60;;;22.90;56.50;;;;;;6093397;28;81070;-60
2023/01/16 16:01:00;;;;;;;98.45;55.65;;;22.90;56.50;;;;;;6094702;28;83522;-59
2023/01/16 16:04:00;;;;;;;165.10;104.68;;;22.90;57.40;;;;;;6090044;28;84503;-59
2023/01/16 16:07:01;;;;;;;227.70;140.27;;;23.00;57.10;;;;;;6092874;28;86130;-61
2023/01/16 16:10:01;;;;;;;268.25;163.05;;;22.90;58.50;;;;;;6093582;28;85958;-60
2023/01/16 16:13:02;;;;;;;268.10;161.77;;;22.90;58.40;;;;;;6097169;28;85652;-57
2023/01/16 16:19:22;;;;;;;249.15;152.02;;;23.00;57.40;;;;;;6066791;28;85966;-58
2023/01/16 16:25:41;;;;;;;171.07;102.95;;;23.00;57.40;;;;;;6095741;28;86388;-59
2023/01/16 16:28:42;;;;;;;137.13;83.82;;;23.00;57.70;;;;;;6084658;28;92293;-58
2023/01/16 16:31:44;;;;;;;134.07;78.45;;;22.90;57.80;;;;;;6093430;28;85572;-56
2023/01/16 16:34:44;;;;;;;113.53;68.57;;;23.00;57.50;;;;;;6086698;28;82919;-58
2023/01/16 16:37:45;;;;;;;101.45;61.13;;;22.90;56.70;;;;;;6068949;28;83027;-58
2023/01/16 16:40:46;;;;;;;93.18;55.72;;;23.00;56.70;;;;;;6087244;28;83078;-58
2023/01/16 16:43:46;;;;;;;87.32;48.70;;;23.00;56.00;;;;;;6091661;28;88197;-56
2023/01/16 16:46:47;;;;;;;63.75;37.30;;;23.00;56.10;;;;;;6099759;28;83570;-58
2023/01/16 16:49:48;;;;;;;60.33;37.30;;;22.90;55.00;;;;;;6105021;28;83111;-59
2023/01/16 16:52:48;;;;;;;57.17;34.88;;;22.90;55.00;;;;;;6090274;28;83968;-58
2023/01/16 16:55:49;;;;;;;51.45;33.03;;;22.80;55.10;;;;;;6095441;28;89426;-59
2023/01/16 16:58:50;;;;;;;46.70;30.30;;;22.80;55.30;;;;;;6093365;28;86889;-58
2023/01/16 17:01:51;;;;;;;47.92;29.77;;;22.90;55.30;;;;;;6091081;28;84947;-58
2023/01/16 17:04:51;;;;;;;49.13;29.90;;;22.90;55.20;;;;;;6093055;28;84323;-59
2023/01/16 17:07:52;;;;;;;43.40;26.23;;;22.90;55.40;;;;;;6089970;28;82891;-57
2023/01/16 17:10:52;;;;;;;35.35;22.73;;;22.80;55.30;;;;;;6095631;28;90439;-58
2023/01/16 17:13:53;;;;;;;33.83;21.38;;;22.80;55.20;;;;;;6095362;28;84074;-58
2023/01/16 17:16:54;;;;;;;28.40;18.95;;;22.80;55.20;;;;;;6091666;28;84568;-59
2023/01/16 17:19:54;;;;;;;30.90;17.88;;;22.80;54.90;;;;;;6094934;28;83075;-59